Time;durP1;ratioP1;P1;durP2;ratioP2;P2;SDS_P1;SDS_P2;PMS_P1;PMS_P2;Temp;Humidity;BMP_temperature;BMP_pressure;BME280_temperature;BME280_humidity;BME280_pressure;Samples;Min_cycle;Max_cycle;Signal;HPM_P1;HPM_P2
2023/01/02 00:01:46;;;;;;;9.25;4.60;;;10.80;99.90;;;;;;5036208;28;20044;-87
2023/01/02 00:04:11;;;;;;;7.72;3.78;;;10.80;99.90;;;;;;5039727;28;20126;-87
2023/01/02 00:06:38;;;;;;;8.27;4.40;;;10.80;99.90;;;;;;5069165;28;20111;-87
2023/01/02 00:09:05;;;;;;;6.82;4.13;;;10.80;99.90;;;;;;5035565;28;20049;-87
2023/01/02 00:11:30;;;;;;;7.07;4.22;;;10.80;99.90;;;;;;5038900;28;20067;-88
2023/01/02 00:13:56;;;;;;;6.60;4.30;;;10.80;99.90;;;;;;5053378;28;20504;-88
2023/01/02 00:16:22;;;;;;;8.13;4.05;;;10.80;99.90;;;;;;5045153;28;20048;-87
2023/01/02 00:18:47;;;;;;;8.80;4.60;;;10.80;99.90;;;;;;5053731;28;20037;-87
2023/01/02 00:21:13;;;;;;;8.15;4.43;;;10.80;99.90;;;;;;5068919;28;20033;-87
2023/01/02 00:23:39;;;;;;;9.07;5.32;;;10.80;99.90;;;;;;5038186;28;20152;-87
2023/01/02 00:26:06;;;;;;;12.35;5.47;;;10.90;99.90;;;;;;5035708;28;20067;-87
2023/01/02 00:28:32;;;;;;;6.85;4.32;;;10.90;99.90;;;;;;5027958;28;20087;-87
2023/01/02 00:31:04;;;;;;;8.32;4.82;;;10.90;99.90;;;;;;5033534;28;20053;-87
2023/01/02 00:33:30;;;;;;;10.88;5.38;;;10.90;99.90;;;;;;5033255;28;20397;-88
2023/01/02 00:35:55;;;;;;;9.35;4.38;;;10.90;99.90;;;;;;5032270;28;20037;-88
2023/01/02 00:38:21;;;;;;;10.98;5.05;;;10.90;99.90;;;;;;5031044;28;20045;-88
2023/01/02 00:40:46;;;;;;;7.97;5.18;;;10.90;99.90;;;;;;5032105;28;20037;-88
2023/01/02 00:43:12;;;;;;;10.70;5.30;;;10.90;99.90;;;;;;5033020;28;20044;-88
2023/01/02 00:45:37;;;;;;;11.70;5.80;;;10.90;99.90;;;;;;5031320;28;20041;-88
2023/01/02 00:48:03;;;;;;;13.38;5.95;;;10.90;99.90;;;;;;5033165;28;20052;-88
2023/01/02 00:50:29;;;;;;;11.82;5.75;;;10.90;99.90;;;;;;5031799;28;20049;-88
2023/01/02 00:52:54;;;;;;;8.45;5.15;;;10.90;99.90;;;;;;5032615;28;20048;-88
2023/01/02 00:55:20;;;;;;;12.35;5.45;;;10.90;99.90;;;;;;5031498;28;20124;-87
2023/01/02 00:57:46;;;;;;;15.20;7.55;;;10.90;99.90;;;;;;5032003;28;20114;-87
2023/01/02 01:00:12;;;;;;;13.35;6.57;;;10.90;99.90;;;;;;5031044;28;20041;-88
2023/01/02 01:02:37;;;;;;;12.60;6.03;;;10.90;99.90;;;;;;5030224;28;20441;-88
2023/01/02 01:05:03;;;;;;;11.85;6.15;;;11.00;99.90;;;;;;5031567;28;20128;-87
2023/01/02 01:07:29;;;;;;;13.05;6.07;;;11.00;99.90;;;;;;5030178;28;20053;-87
2023/01/02 01:09:55;;;;;;;10.27;5.97;;;11.00;99.90;;;;;;5033005;28;20045;-87
2023/01/02 01:12:20;;;;;;;13.95;7.28;;;11.00;99.90;;;;;;5031438;28;20037;-87
2023/01/02 01:14:46;;;;;;;12.82;6.72;;;11.00;99.90;;;;;;5031849;28;20481;-87
2023/01/02 01:17:11;;;;;;;15.65;8.32;;;11.00;99.90;;;;;;5031005;28;20042;-87
2023/01/02 01:19:37;;;;;;;14.85;7.53;;;11.00;99.90;;;;;;5030484;28;20059;-87
2023/01/02 01:22:02;;;;;;;12.93;8.15;;;11.00;99.90;;;;;;5032217;28;20413;-87
2023/01/02 01:24:29;;;;;;;13.80;7.93;;;11.00;99.90;;;;;;5031496;28;20245;-87
2023/01/02 01:26:54;;;;;;;16.25;8.43;;;11.10;99.90;;;;;;5032263;28;20045;-87
2023/01/02 01:29:20;;;;;;;16.10;8.45;;;11.10;99.90;;;;;;5031028;28;20045;-87
2023/01/02 01:31:45;;;;;;;15.52;8.48;;;11.10;99.90;;;;;;5024397;28;20064;-87
2023/01/02 01:34:11;;;;;;;16.27;8.90;;;11.10;99.90;;;;;;5016658;28;20047;-87
2023/01/02 01:36:37;;;;;;;14.35;8.00;;;11.10;99.90;;;;;;5014644;28;20049;-87
2023/01/02 01:39:03;;;;;;;16.17;8.50;;;11.10;99.90;;;;;;5032263;28;20112;-86
2023/01/02 01:41:28;;;;;;;17.70;9.50;;;11.10;99.90;;;;;;5014076;28;20119;-87
2023/01/02 01:43:57;;;;;;;16.02;8.30;;;11.10;99.90;;;;;;5032469;28;20038;-88
2023/01/02 01:46:37;;;;;;;17.05;8.10;;;11.10;99.90;;;;;;5021909;28;20045;-87
2023/01/02 01:49:15;;;;;;;13.85;7.55;;;11.10;99.90;;;;;;5031517;28;20046;-87
2023/01/02 01:51:58;;;;;;;16.77;8.30;;;11.10;99.90;;;;;;5015396;28;20436;-87
2023/01/02 01:54:30;;;;;;;17.85;8.35;;;11.10;99.90;;;;;;5018631;28;20042;-87
2023/01/02 01:57:02;;;;;;;15.38;7.68;;;11.10;99.90;;;;;;5016093;28;20115;-88
2023/01/02 01:59:28;;;;;;;12.95;6.93;;;11.20;99.90;;;;;;5016943;28;20056;-88
2023/01/02 02:01:53;;;;;;;12.95;7.70;;;11.20;99.90;;;;;;5034913;28;20081;-87
2023/01/02 02:04:21;;;;;;;17.20;8.32;;;11.20;99.90;;;;;;5015290;28;20528;-87
2023/01/02 02:06:48;;;;;;;13.23;7.88;;;11.20;99.90;;;;;;5014686;28;20133;-88
2023/01/02 02:09:35;;;;;;;14.13;7.53;;;11.20;99.90;;;;;;5013791;28;20100;-88
2023/01/02 02:12:02;;;;;;;16.63;8.40;;;11.20;99.90;;;;;;5032563;28;20436;-88
2023/01/02 02:14:28;;;;;;;14.45;8.27;;;11.20;99.90;;;;;;5015810;28;20384;-87
2023/01/02 02:17:05;;;;;;;13.90;8.07;;;11.20;99.90;;;;;;5031539;28;20125;-87
2023/01/02 02:19:57;;;;;;;18.58;7.97;;;11.20;99.90;;;;;;5031466;28;20048;-87
2023/01/02 02:23:22;;;;;;;14.88;8.00;;;11.20;99.90;;;;;;5029747;28;20043;-87
2023/01/02 02:25:54;;;;;;;;;;;11.20;99.90;;;;;;4991979;28;20083;-87
2023/01/02 02:28:50;;;;;;;16.50;8.23;;;11.20;99.90;;;;;;5031983;28;19944;-87
2023/01/02 02:31:23;;;;;;;20.92;8.55;;;11.20;99.90;;;;;;5007446;28;20060;-88
2023/01/02 02:33:56;;;;;;;16.77;7.95;;;11.20;99.90;;;;;;5032595;28;20048;-88
2023/01/02 02:36:47;;;;;;;18.13;8.75;;;11.30;99.90;;;;;;5011101;28;20128;-88
2023/01/02 02:39:51;;;;;;;16.83;8.15;;;11.30;99.90;;;;;;5035777;28;20041;-88
2023/01/02 02:42:55;;;;;;;16.93;8.67;;;11.30;99.90;;;;;;5017870;28;20397;-86
2023/01/02 02:45:40;;;;;;;16.13;8.07;;;11.30;99.90;;;;;;5015480;28;20213;-88
2023/01/02 02:48:12;;;;;;;18.92;8.15;;;11.30;99.90;;;;;;5017862;28;20046;-88
2023/01/02 02:51:08;;;;;;;17.10;7.95;;;11.30;99.90;;;;;;5015724;28;20044;-87
2023/01/02 02:53:43;;;;;;;17.42;8.85;;;11.30;99.90;;;;;;5020271;28;20053;-87
2023/01/02 02:56:11;;;;;;;12.93;7.45;;;11.30;99.90;;;;;;5018904;28;20056;-88
2023/01/02 02:58:39;;;;;;;17.98;8.95;;;11.30;99.90;;;;;;5017299;28;20167;-87
2023/01/02 03:01:10;;;;;;;22.92;9.43;;;11.30;99.90;;;;;;5017169;28;20052;-88
2023/01/02 03:03:36;;;;;;;17.95;8.45;;;11.40;99.90;;;;;;5021700;28;20045;-87
2023/01/02 03:06:17;;;;;;;17.30;8.70;;;11.40;99.90;;;;;;5015401;28;20056;-87
2023/01/02 03:09:09;;;;;;;17.98;8.30;;;11.30;99.90;;;;;;5034499;28;20425;-87
2023/01/02 03:11:53;;;;;;;19.52;9.88;;;11.40;99.90;;;;;;5019127;28;20049;-88
2023/01/02 03:14:41;;;;;;;22.20;8.70;;;11.40;99.90;;;;;;5016208;28;20038;-87
2023/01/02 03:17:16;;;;;;;19.90;8.38;;;11.40;99.90;;;;;;5017242;28;20497;-88
2023/01/02 03:19:45;;;;;;;17.75;9.43;;;11.40;99.90;;;;;;5034462;28;20112;-87
2023/01/02 03:22:17;;;;;;;19.55;8.85;;;11.40;99.90;;;;;;5020314;28;20421;-88
2023/01/02 03:24:47;;;;;;;15.23;8.73;;;11.40;99.90;;;;;;5017205;28;20048;-87
2023/01/02 03:27:18;;;;;;;17.67;9.05;;;11.40;99.90;;;;;;5033703;28;20095;-88
2023/01/02 03:29:55;;;;;;;15.32;8.63;;;11.40;99.90;;;;;;5017820;28;20048;-88
2023/01/02 03:32:25;;;;;;;19.10;8.52;;;11.40;99.90;;;;;;5033197;28;20057;-89
2023/01/02 03:34:52;;;;;;;17.40;9.18;;;11.40;99.90;;;;;;5055388;28;20514;-87
2023/01/02 03:37:27;;;;;;;20.10;8.32;;;11.40;99.90;;;;;;5068100;28;20503;-87
2023/01/02 03:39:58;;;;;;;17.58;8.65;;;11.40;99.90;;;;;;5048462;28;20041;-87
2023/01/02 03:42:59;;;;;;;17.88;8.65;;;11.40;99.90;;;;;;5054973;28;20041;-87
2023/01/02 03:45:32;;;;;;;19.05;8.50;;;11.40;99.90;;;;;;5010862;28;20500;-87
2023/01/02 03:48:26;;;;;;;20.92;8.35;;;11.40;99.90;;;;;;5040017;28;20041;-87
2023/01/02 03:50:54;;;;;;;18.88;9.25;;;11.40;99.90;;;;;;5038125;28;20045;-87
2023/01/02 03:53:21;;;;;;;21.42;8.55;;;11.40;99.90;;;;;;5055124;28;20053;-87
2023/01/02 03:56:09;;;;;;;20.45;9.05;;;11.40;99.90;;;;;;5053731;28;20069;-87
2023/01/02 03:58:55;;;;;;;18.33;8.10;;;11.40;99.90;;;;;;5017811;28;20080;-87
2023/01/02 04:01:50;;;;;;;15.48;8.15;;;11.50;99.90;;;;;;5069613;28;20094;-87
2023/01/02 04:04:48;;;;;;;15.02;8.38;;;11.50;99.90;;;;;;5039813;28;20095;-87
2023/01/02 04:07:35;;;;;;;16.65;7.95;;;11.50;99.90;;;;;;5016889;28;20084;-88
2023/01/02 04:10:02;;;;;;;18.40;8.38;;;11.50;99.90;;;;;;5036900;28;20045;-87
2023/01/02 04:12:31;;;;;;;15.20;7.82;;;11.50;99.90;;;;;;5045754;28;20059;-87
2023/01/02 04:15:04;;;;;;;15.00;7.60;;;11.50;99.90;;;;;;5037044;28;20040;-86
2023/01/02 04:17:33;;;;;;;;;;;11.50;99.90;;;;;;5025747;28;20045;-87
2023/01/02 04:20:03;;;;;;;13.95;7.70;;;11.50;99.90;;;;;;5053227;28;19921;-87
2023/01/02 04:22:43;;;;;;;17.35;7.68;;;11.50;99.90;;;;;;5034477;28;20037;-86
2023/01/02 04:25:14;;;;;;;18.20;8.50;;;11.50;99.90;;;;;;5053373;28;20045;-87
2023/01/02 04:27:54;;;;;;;18.58;7.97;;;11.50;99.90;;;;;;5054004;28;20048;-87
2023/01/02 04:30:19;;;;;;;15.77;7.95;;;11.60;99.90;;;;;;5035088;28;20442;-87
2023/01/02 04:32:46;;;;;;;15.38;8.13;;;11.60;99.90;;;;;;5034193;28;20045;-87
2023/01/02 04:35:19;;;;;;;15.00;7.90;;;11.60;99.90;;;;;;5015439;28;20057;-87
2023/01/02 04:37:46;;;;;;;17.17;8.67;;;11.60;99.90;;;;;;5036200;28;20042;-87
2023/01/02 04:40:18;;;;;;;18.33;8.60;;;11.60;99.90;;;;;;5034096;28;20288;-87
2023/01/02 04:42:43;;;;;;;14.60;8.38;;;11.60;99.90;;;;;;5033925;28;20049;-88
2023/01/02 04:45:09;;;;;;;14.60;7.93;;;11.60;99.90;;;;;;5032125;28;20087;-87
2023/01/02 04:47:35;;;;;;;16.85;7.82;;;11.60;99.90;;;;;;5021023;28;20519;-87
2023/01/02 04:50:01;;;;;;;16.30;7.95;;;11.60;99.90;;;;;;5022173;28;20038;-87
2023/01/02 04:52:27;;;;;;;17.65;8.57;;;11.60;99.90;;;;;;5032307;28;20426;-87
2023/01/02 04:54:52;;;;;;;15.85;7.47;;;11.60;99.90;;;;;;5033710;28;20127;-87
2023/01/02 04:57:18;;;;;;;20.10;9.00;;;11.60;99.90;;;;;;5014384;28;20050;-87
2023/01/02 04:59:43;;;;;;;22.25;8.20;;;11.60;99.90;;;;;;5015289;28;20401;-87
2023/01/02 05:02:09;;;;;;;15.82;8.02;;;11.60;99.90;;;;;;5050923;28;20131;-87
2023/01/02 05:04:35;;;;;;;21.58;8.95;;;11.60;99.90;;;;;;5043927;28;20032;-87
2023/01/02 05:07:01;;;;;;;15.90;8.05;;;11.70;99.90;;;;;;5017816;28;20099;-87
2023/01/02 05:09:27;;;;;;;19.80;8.80;;;11.70;99.90;;;;;;5018918;28;20140;-87
2023/01/02 05:11:53;;;;;;;19.05;8.30;;;11.70;99.90;;;;;;5021874;28;20072;-87
2023/01/02 05:14:18;;;;;;;21.85;8.65;;;11.70;99.90;;;;;;5038920;28;20108;-87
2023/01/02 05:16:44;;;;;;;16.95;8.05;;;11.70;99.90;;;;;;5036137;28;20095;-87
2023/01/02 05:19:10;;;;;;;16.35;7.53;;;11.70;99.90;;;;;;5022250;28;20037;-87
2023/01/02 05:24:20;;;;;;;18.83;7.93;;;11.70;99.90;;;;;;5036848;28;20072;-87
2023/01/02 05:26:46;;;;;;;16.10;7.18;;;11.70;99.90;;;;;;5044540;28;20068;-87
2023/01/02 05:29:11;;;;;;;17.40;8.00;;;11.70;99.90;;;;;;5014831;28;20041;-87
2023/01/02 05:31:37;;;;;;;15.57;7.43;;;11.70;99.90;;;;;;5033469;28;20393;-87
2023/01/02 05:34:03;;;;;;;17.23;7.80;;;11.70;99.90;;;;;;5019296;28;20045;-86
2023/01/02 05:36:28;;;;;;;15.55;8.43;;;11.80;99.90;;;;;;5036235;28;20050;-86
2023/01/02 05:38:54;;;;;;;15.57;8.20;;;11.70;99.90;;;;;;5032558;28;20041;-86
2023/01/02 05:41:21;;;;;;;13.23;7.57;;;11.70;99.90;;;;;;5019901;28;20544;-86
2023/01/02 05:43:46;;;;;;;14.93;7.35;;;11.80;99.90;;;;;;5020494;28;20047;-86
2023/01/02 05:46:17;;;;;;;15.07;7.90;;;11.80;99.90;;;;;;5039697;28;20473;-86
2023/01/02 05:48:44;;;;;;;14.13;7.00;;;11.80;99.90;;;;;;5030705;28;20092;-87
2023/01/02 05:51:12;;;;;;;17.00;7.80;;;11.80;99.90;;;;;;5038559;28;20116;-87
2023/01/02 05:53:38;;;;;;;12.48;6.78;;;11.80;99.90;;;;;;5016151;28;20450;-87
2023/01/02 05:56:10;;;;;;;17.60;7.80;;;11.80;99.90;;;;;;5019428;28;20405;-87
2023/01/02 05:58:38;;;;;;;14.85;7.13;;;11.80;99.90;;;;;;5021400;28;20034;-86
2023/01/02 06:01:18;;;;;;;13.77;7.22;;;11.80;99.90;;;;;;5040323;28;20037;-87
2023/01/02 06:03:46;;;;;;;16.08;7.95;;;11.80;99.90;;;;;;5032221;28;20046;-87
2023/01/02 06:06:12;;;;;;;14.18;7.82;;;11.90;99.90;;;;;;5016815;28;20049;-86
2023/01/02 06:08:38;;;;;;;14.02;7.88;;;11.90;99.90;;;;;;5017393;28;20533;-87
2023/01/02 06:11:06;;;;;;;14.48;7.15;;;11.80;99.90;;;;;;5021539;28;20187;-86
2023/01/02 06:13:33;;;;;;;14.07;7.63;;;11.80;99.90;;;;;;5018513;28;20438;-87
2023/01/02 06:16:00;;;;;;;19.02;8.55;;;11.90;99.90;;;;;;5022028;28;20215;-87
2023/01/02 06:18:27;;;;;;;15.88;8.35;;;11.90;99.90;;;;;;5018555;28;20473;-87
2023/01/02 06:21:03;;;;;;;13.57;7.15;;;11.90;99.90;;;;;;5035618;28;20045;-86
2023/01/02 06:23:29;;;;;;;11.05;7.07;;;11.90;99.90;;;;;;5027087;28;20049;-86
2023/01/02 06:25:54;;;;;;;11.48;7.15;;;11.90;99.90;;;;;;5018497;28;20042;-87
2023/01/02 06:28:20;;;;;;;11.45;7.32;;;11.90;99.90;;;;;;5027261;28;20068;-86
2023/01/02 06:30:46;;;;;;;13.88;6.97;;;11.90;99.90;;;;;;5021178;28;20091;-86
2023/01/02 06:33:11;;;;;;;8.80;5.93;;;11.90;99.90;;;;;;5055411;28;20485;-86
2023/01/02 06:35:37;;;;;;;13.18;6.57;;;12.00;99.90;;;;;;5041000;28;20033;-86
2023/01/02 06:38:03;;;;;;;12.90;5.88;;;12.00;99.90;;;;;;5069970;28;20056;-86
2023/01/02 06:40:28;;;;;;;13.35;5.65;;;12.00;99.90;;;;;;5037295;28;20065;-87
2023/01/02 06:42:54;;;;;;;10.43;6.22;;;12.00;99.90;;;;;;5038554;28;20084;-86
2023/01/02 06:45:22;;;;;;;9.55;5.85;;;12.00;99.90;;;;;;5037404;28;20071;-85
2023/01/02 06:47:54;;;;;;;10.68;5.68;;;12.00;99.90;;;;;;5055319;28;20033;-87
2023/01/02 06:50:19;;;;;;;10.10;5.35;;;12.00;99.90;;;;;;5039758;28;20048;-86
2023/01/02 06:52:45;;;;;;;6.78;3.95;;;12.10;99.90;;;;;;5047296;28;20044;-87
2023/01/02 06:55:10;;;;;;;5.78;2.80;;;12.00;99.90;;;;;;5041140;28;20041;-87
2023/01/02 06:57:36;;;;;;;4.95;3.08;;;12.00;99.90;;;;;;5045619;28;20053;-86
2023/01/02 07:00:02;;;;;;;5.07;3.00;;;12.00;99.90;;;;;;5054487;28;20546;-87
2023/01/02 07:02:28;;;;;;;5.90;3.15;;;11.90;99.90;;;;;;5054499;28;20041;-87
2023/01/02 07:04:53;;;;;;;4.00;2.38;;;11.90;99.90;;;;;;5054329;28;20044;-88
2023/01/02 07:07:21;;;;;;;5.28;2.50;;;11.90;99.90;;;;;;5037096;28;20131;-88
2023/01/02 07:09:47;;;;;;;4.25;2.67;;;11.90;99.90;;;;;;5042093;28;20041;-89
2023/01/02 07:12:12;;;;;;;4.35;2.60;;;11.80;99.90;;;;;;5057672;28;20036;-88
2023/01/02 07:14:38;;;;;;;4.05;2.42;;;11.70;99.90;;;;;;5040722;28;20515;-88
2023/01/02 07:17:04;;;;;;;4.85;2.30;;;11.70;99.90;;;;;;5037766;28;20041;-87
2023/01/02 07:19:29;;;;;;;3.55;2.50;;;11.70;99.90;;;;;;5053440;28;20048;-87
2023/01/02 07:21:55;;;;;;;4.22;2.50;;;11.60;99.90;;;;;;5041137;28;20037;-87
2023/01/02 07:24:20;;;;;;;4.38;2.50;;;11.60;99.90;;;;;;5055275;28;20037;-88
2023/01/02 07:26:46;;;;;;;4.90;2.80;;;11.50;99.90;;;;;;5053994;28;20041;-87
2023/01/02 07:29:11;;;;;;;4.70;3.00;;;11.50;99.90;;;;;;5054425;28;20041;-87
2023/01/02 07:31:37;;;;;;;4.10;2.60;;;11.50;99.90;;;;;;5042557;28;20059;-87
2023/01/02 07:34:02;;;;;;;4.53;3.17;;;11.40;99.90;;;;;;5052428;28;20037;-87
2023/01/02 07:36:28;;;;;;;6.28;3.30;;;11.40;99.90;;;;;;5042618;28;20102;-87
2023/01/02 07:38:56;;;;;;;5.60;3.55;;;11.30;99.90;;;;;;5036967;28;20519;-87
2023/01/02 07:41:23;;;;;;;5.93;4.13;;;11.20;99.90;;;;;;5040221;28;20036;-87
2023/01/02 07:43:49;;;;;;;6.25;3.97;;;11.20;99.90;;;;;;5055041;28;20055;-87
2023/01/02 07:46:18;;;;;;;6.00;3.50;;;11.10;99.90;;;;;;5041194;28;20132;-87
2023/01/02 07:48:44;;;;;;;5.50;3.55;;;11.10;99.90;;;;;;5036453;28;20083;-87
2023/01/02 07:51:10;;;;;;;5.45;3.45;;;11.00;99.90;;;;;;5036946;28;20076;-87
2023/01/02 07:53:37;;;;;;;5.70;3.35;;;11.00;99.90;;;;;;5034497;28;20040;-87
2023/01/02 07:56:03;;;;;;;5.15;3.35;;;10.90;99.90;;;;;;5052927;28;20082;-89
2023/01/02 07:58:31;;;;;;;6.75;3.70;;;10.90;99.90;;;;;;5043392;28;20125;-89
2023/01/02 08:01:09;;;;;;;4.93;2.70;;;10.80;99.90;;;;;;5032593;28;20049;-90
2023/01/02 08:03:41;;;;;;;5.55;2.67;;;10.80;99.90;;;;;;5036845;28;20095;-88
2023/01/02 08:06:17;;;;;;;5.20;3.00;;;10.80;99.90;;;;;;5036985;28;20049;-88
2023/01/02 08:08:47;;;;;;;5.57;2.60;;;10.70;99.90;;;;;;5050117;28;20048;-90
2023/01/02 08:11:22;;;;;;;4.47;2.15;;;10.70;99.90;;;;;;5068719;28;20057;-86
2023/01/02 08:13:48;;;;;;;5.25;2.30;;;10.70;99.90;;;;;;5031929;28;20067;-95
2023/01/02 08:16:36;;;;;;;4.10;1.85;;;10.60;99.90;;;;;;5046420;28;20384;-92
2023/01/02 08:22:44;;;;;;;3.95;1.80;;;10.50;99.90;;;;;;5014703;28;20045;-89
2023/01/02 08:25:10;;;;;;;3.88;1.73;;;10.50;99.90;;;;;;5053472;28;20431;-89
2023/01/02 08:27:35;;;;;;;5.15;2.03;;;10.50;99.90;;;;;;5054332;28;20483;-88
2023/01/02 08:30:09;;;;;;;5.10;1.63;;;10.40;99.90;;;;;;5066499;28;20032;-91
2023/01/02 08:32:38;;;;;;;;;;;10.40;99.90;;;;;;5027435;28;20053;-89
2023/01/02 08:35:04;;;;;;;4.22;1.80;;;10.30;99.90;;;;;;5016421;28;19927;-90
2023/01/02 08:37:30;;;;;;;4.70;1.50;;;10.30;99.90;;;;;;5015106;28;20053;-88
2023/01/02 08:39:58;;;;;;;3.70;1.20;;;10.30;99.90;;;;;;5016103;28;20049;-88
2023/01/02 08:42:24;;;;;;;3.05;1.15;;;10.30;99.90;;;;;;5033440;28;20099;-88
2023/01/02 08:44:50;;;;;;;4.35;1.40;;;10.20;99.90;;;;;;5019881;28;20042;-89
2023/01/02 08:47:15;;;;;;;3.72;1.80;;;10.20;99.90;;;;;;5032411;28;20049;-89
2023/01/02 08:49:41;;;;;;;3.47;1.20;;;10.20;99.90;;;;;;5015603;28;20076;-89
2023/01/02 08:52:07;;;;;;;5.45;1.80;;;10.10;99.90;;;;;;5014963;28;20029;-88
2023/01/02 08:54:33;;;;;;;3.53;1.73;;;10.10;99.90;;;;;;5015748;28;20075;-88
2023/01/02 08:56:58;;;;;;;3.60;1.42;;;10.10;99.90;;;;;;5015045;28;20044;-89
2023/01/02 08:59:25;;;;;;;2.92;1.30;;;10.10;99.90;;;;;;5033048;28;20037;-88
2023/01/02 09:01:51;;;;;;;3.28;1.55;;;10.10;99.90;;;;;;5015584;28;20038;-88
2023/01/02 09:04:17;;;;;;;3.13;1.60;;;10.00;99.90;;;;;;5031352;28;20481;-89
2023/01/02 09:06:43;;;;;;;3.97;1.60;;;10.00;99.90;;;;;;5015365;28;20037;-88
2023/01/02 09:09:10;;;;;;;5.20;1.30;;;10.00;99.90;;;;;;5015820;28;20417;-88
2023/01/02 09:11:41;;;;;;;3.08;1.50;;;10.00;99.90;;;;;;5014527;28;20484;-89
2023/01/02 09:14:06;;;;;;;4.13;1.38;;;9.90;99.90;;;;;;5018429;28;20026;-90
2023/01/02 09:16:32;;;;;;;4.15;1.30;;;10.00;99.90;;;;;;5015265;28;20084;-89
2023/01/02 09:19:00;;;;;;;3.72;1.60;;;9.90;99.90;;;;;;5032235;28;20092;-88
2023/01/02 09:21:26;;;;;;;5.53;1.50;;;9.90;99.90;;;;;;5014830;28;20037;-90
2023/01/02 09:23:52;;;;;;;4.20;1.55;;;9.90;99.90;;;;;;5015067;28;20379;-88
2023/01/02 09:26:18;;;;;;;3.75;1.55;;;9.90;99.90;;;;;;5010250;28;20532;-88
2023/01/02 09:28:44;;;;;;;4.03;1.60;;;9.90;99.90;;;;;;5004365;28;20073;-90
2023/01/02 09:31:12;;;;;;;4.65;1.80;;;9.90;99.90;;;;;;5044710;28;20085;-89
2023/01/02 09:33:40;;;;;;;4.90;1.80;;;9.80;99.90;;;;;;5014246;28;20041;-90
2023/01/02 09:36:08;;;;;;;4.88;2.00;;;9.80;99.90;;;;;;5032404;28;20099;-90
2023/01/02 09:38:34;;;;;;;5.15;2.17;;;9.90;99.90;;;;;;5015187;28;20069;-89
2023/01/02 09:41:04;;;;;;;3.80;1.90;;;9.90;99.90;;;;;;5014183;28;20076;-89
2023/01/02 09:43:51;;;;;;;3.28;1.80;;;9.90;99.90;;;;;;5014541;28;20049;-89
2023/01/02 09:46:33;;;;;;;6.32;2.00;;;9.80;99.90;;;;;;5013071;28;20042;-88
2023/01/02 09:49:00;;;;;;;3.92;2.00;;;9.80;99.90;;;;;;5023639;28;20490;-90
2023/01/02 09:51:26;;;;;;;3.78;1.95;;;9.80;99.90;;;;;;5033132;28;20042;-89
2023/01/02 09:53:54;;;;;;;5.30;2.13;;;9.80;99.90;;;;;;5026359;28;20037;-88
2023/01/02 09:56:31;;;;;;;3.85;1.98;;;9.80;99.90;;;;;;5032230;28;20041;-89
2023/01/02 09:59:15;;;;;;;4.00;1.90;;;9.80;99.90;;;;;;5034551;28;20127;-88
2023/01/02 10:02:00;;;;;;;5.32;1.88;;;9.80;99.90;;;;;;5007634;28;20046;-89
2023/01/02 10:04:50;;;;;;;5.00;1.80;;;9.70;99.90;;;;;;5025105;28;20129;-89
2023/01/02 10:07:48;;;;;;;3.53;1.83;;;9.70;99.90;;;;;;5011926;28;20045;-89
2023/01/02 10:10:23;;;;;;;4.78;2.30;;;9.70;99.90;;;;;;5034671;28;20046;-90
2023/01/02 10:13:01;;;;;;;3.88;1.90;;;9.70;99.90;;;;;;5012713;28;20413;-91
2023/01/02 10:15:29;;;;;;;5.28;2.15;;;9.70;99.90;;;;;;5011695;28;20077;-90
2023/01/02 10:18:01;;;;;;;5.50;2.35;;;9.70;99.90;;;;;;5012755;28;20096;-90
2023/01/02 10:20:34;;;;;;;4.65;2.40;;;9.70;99.90;;;;;;5012218;28;20072;-90
2023/01/02 10:23:16;;;;;;;4.55;2.00;;;9.70;99.90;;;;;;5030984;28;20059;-89
2023/01/02 10:25:45;;;;;;;5.88;2.17;;;9.70;99.90;;;;;;5014697;28;20084;-90
2023/01/02 10:28:29;;;;;;;4.70;2.00;;;9.70;99.90;;;;;;5011879;28;20397;-90
2023/01/02 10:31:09;;;;;;;5.10;1.85;;;9.70;99.90;;;;;;5020181;28;20054;-88
2023/01/02 10:33:47;;;;;;;3.63;2.00;;;9.70;99.90;;;;;;5003823;28;20037;-88
2023/01/02 10:36:27;;;;;;;4.78;1.95;;;9.70;99.90;;;;;;5014170;28;20038;-88
2023/01/02 10:39:36;;;;;;;3.40;1.60;;;9.70;99.90;;;;;;5008490;28;20042;-89
2023/01/02 10:42:13;;;;;;;5.00;1.60;;;9.70;99.90;;;;;;5013522;28;20060;-90
2023/01/02 10:44:40;;;;;;;3.78;1.48;;;9.60;99.90;;;;;;5032978;28;20045;-89
2023/01/02 10:47:41;;;;;;;4.97;1.30;;;9.60;99.90;;;;;;5015838;28;20037;-89
2023/01/02 10:50:19;;;;;;;3.33;1.60;;;9.60;99.90;;;;;;4987824;28;20076;-89
2023/01/02 10:53:05;;;;;;;5.80;1.98;;;9.60;99.90;;;;;;5034140;28;20045;-88
2023/01/02 10:55:40;;;;;;;4.50;1.50;;;9.50;99.90;;;;;;5034838;28;20033;-89
2023/01/02 10:58:11;;;;;;;4.90;1.80;;;9.60;99.90;;;;;;5025588;28;20041;-90
2023/01/02 11:00:40;;;;;;;5.80;1.80;;;9.50;99.90;;;;;;5017652;28;20038;-89
2023/01/02 11:03:24;;;;;;;5.65;1.65;;;9.50;99.90;;;;;;5040889;28;20520;-92
2023/01/02 11:06:21;;;;;;;4.45;1.63;;;9.60;99.90;;;;;;5043695;28;20116;-89
2023/01/02 11:08:56;;;;;;;6.60;2.00;;;9.60;99.90;;;;;;5026726;28;20041;-90
2023/01/02 11:11:23;;;;;;;6.68;2.00;;;9.60;99.90;;;;;;5043205;28;20740;-88
2023/01/02 11:13:56;;;;;;;6.63;2.00;;;9.60;99.90;;;;;;5017815;28;20073;-87
2023/01/02 11:16:25;;;;;;;7.32;1.95;;;9.60;99.90;;;;;;5014908;28;20045;-89
2023/01/02 11:18:57;;;;;;;6.80;1.83;;;9.60;99.90;;;;;;5022133;28;20128;-89
2023/01/02 11:21:35;;;;;;;5.57;2.08;;;9.60;99.90;;;;;;5019656;28;20061;-90
2023/01/02 11:24:11;;;;;;;7.30;1.98;;;9.60;99.90;;;;;;5034206;28;20045;-89
2023/01/02 11:26:39;;;;;;;6.60;1.70;;;9.70;99.90;;;;;;5018764;28;20049;-87
2023/01/02 11:29:24;;;;;;;13.95;2.25;;;9.60;99.90;;;;;;5031332;28;20048;-87
2023/01/02 11:31:56;;;;;;;8.40;2.10;;;9.70;99.90;;;;;;5034365;28;20061;-89
2023/01/02 11:34:34;;;;;;;14.40;3.08;;;9.70;99.90;;;;;;5037659;28;20482;-88
2023/01/02 11:37:13;;;;;;;6.53;2.25;;;9.70;99.90;;;;;;5008255;28;20152;-88
2023/01/02 11:39:39;;;;;;;8.52;2.03;;;9.70;99.90;;;;;;5029570;28;20037;-89
2023/01/02 11:45:16;;;;;;;7.65;2.15;;;9.70;99.90;;;;;;5019640;28;20081;-88
2023/01/02 11:47:47;;;;;;;7.80;1.95;;;9.70;99.90;;;;;;5027155;28;20033;-89
2023/01/02 11:50:22;;;;;;;6.80;1.75;;;9.70;99.90;;;;;;5046341;28;20041;-89
2023/01/02 11:53:08;;;;;;;9.88;2.00;;;9.70;99.90;;;;;;5008407;28;20052;-89
2023/01/02 11:55:54;;;;;;;6.05;2.05;;;9.70;99.90;;;;;;5001911;28;20053;-88
2023/01/02 11:58:41;;;;;;;8.52;1.80;;;9.60;99.90;;;;;;5028269;28;20490;-89
2023/01/02 12:01:28;;;;;;;9.18;2.13;;;9.70;99.90;;;;;;5016698;28;20037;-89
2023/01/02 12:03:55;;;;;;;8.20;1.90;;;9.70;99.90;;;;;;5016480;28;20057;-89
2023/01/02 12:06:24;;;;;;;5.20;1.45;;;9.70;99.90;;;;;;5036582;28;20033;-91
2023/01/02 12:09:04;;;;;;;9.13;1.75;;;9.70;99.90;;;;;;5022851;28;20065;-90
2023/01/02 12:11:45;;;;;;;10.80;1.52;;;9.70;99.90;;;;;;5029670;28;20044;-88
2023/01/02 12:14:44;;;;;;;8.52;1.50;;;9.70;99.90;;;;;;5038388;28;20454;-90
2023/01/02 12:17:25;;;;;;;9.27;1.75;;;9.70;99.90;;;;;;5034765;28;20528;-92
2023/01/02 12:20:00;;;;;;;7.55;1.80;;;9.70;99.90;;;;;;5018208;28;20057;-90
2023/01/02 12:23:14;;;;;;;10.52;1.60;;;9.70;99.90;;;;;;5013900;28;20126;-88
2023/01/02 12:26:13;;;;;;;8.82;1.40;;;9.70;99.90;;;;;;5022939;28;20038;-89
2023/01/02 12:28:48;;;;;;;10.82;1.70;;;9.70;99.90;;;;;;5039179;28;20519;-88
2023/01/02 12:31:28;;;;;;;7.53;1.70;;;9.70;99.90;;;;;;5013004;28;20137;-89
2023/01/02 12:34:06;;;;;;;9.27;1.60;;;9.70;99.90;;;;;;5023730;28;20471;-89
2023/01/02 12:36:37;;;;;;;10.80;1.95;;;9.80;99.90;;;;;;5031074;28;20037;-89
2023/01/02 12:39:37;;;;;;;12.65;1.98;;;9.80;99.90;;;;;;5045264;28;20436;-89
2023/01/02 12:42:37;;;;;;;8.82;1.70;;;9.80;99.90;;;;;;5032811;28;20046;-89
2023/01/02 12:45:22;;;;;;;8.55;1.65;;;9.80;99.90;;;;;;5007576;28;20401;-90
2023/01/02 12:47:59;;;;;;;9.75;1.80;;;9.80;99.90;;;;;;5030686;28;20482;-89
2023/01/02 12:50:45;;;;;;;9.00;2.05;;;9.80;99.90;;;;;;5028645;28;20504;-89
2023/01/02 12:53:32;;;;;;;11.27;2.15;;;9.80;99.90;;;;;;5029219;28;20033;-90
2023/01/02 12:56:06;;;;;;;7.68;1.95;;;9.80;99.90;;;;;;5030594;28;20033;-90
2023/01/02 12:58:54;;;;;;;11.75;1.77;;;9.80;99.90;;;;;;5032311;28;20038;-90
2023/01/02 13:01:29;;;;;;;6.05;1.40;;;9.80;99.90;;;;;;5034122;28;20045;-89
2023/01/02 13:04:15;;;;;;;11.00;1.95;;;9.80;99.90;;;;;;5031829;28;20413;-89
2023/01/02 13:06:48;;;;;;;9.55;2.05;;;9.80;99.90;;;;;;5033524;28;20037;-89
2023/01/02 13:09:32;;;;;;;14.60;1.90;;;9.80;99.90;;;;;;5019955;28;20128;-89
2023/01/02 13:12:13;;;;;;;8.63;2.08;;;9.80;99.90;;;;;;5032368;28;20625;-89
2023/01/02 13:14:53;;;;;;;9.90;1.70;;;9.90;99.90;;;;;;5013800;28;20513;-89
2023/01/02 13:17:34;;;;;;;10.10;1.92;;;9.90;99.90;;;;;;5029899;28;20886;-89
2023/01/02 13:20:17;;;;;;;12.68;2.03;;;9.80;99.90;;;;;;5032091;28;20045;-89
2023/01/02 13:23:08;;;;;;;13.00;2.10;;;9.80;99.90;;;;;;5031112;28;20029;-88